createdAt,value
2024-02-13T00:01:30.813Z,5.50
2024-02-13T00:06:33.782Z,5.36
2024-02-13T00:11:36.435Z,5.40
2024-02-13T00:16:39.380Z,5.38
2024-02-13T00:21:41.979Z,5.46
2024-02-13T00:26:46.028Z,5.37
2024-02-13T00:31:48.891Z,5.33
2024-02-13T00:37:11.580Z,5.37
2024-02-13T00:42:14.296Z,5.29
2024-02-13T00:47:19.861Z,5.19
2024-02-13T00:52:22.911Z,5.14
2024-02-13T00:57:26.158Z,5.03
2024-02-13T01:02:28.783Z,5.09
2024-02-13T01:07:35.881Z,5.25
2024-02-13T01:12:40.528Z,5.19
2024-02-13T01:17:43.183Z,5.19
2024-02-13T01:22:45.818Z,4.97
2024-02-13T01:27:48.767Z,5.11
2024-02-13T01:32:51.744Z,5.12
2024-02-13T01:37:54.462Z,4.97
2024-02-13T01:42:57.980Z,4.91
2024-02-13T01:48:03.075Z,4.94
2024-02-13T01:53:06.472Z,4.91
2024-02-13T01:58:12.510Z,4.75
2024-02-13T02:03:19.220Z,4.76
2024-02-13T02:08:21.772Z,4.71
2024-02-13T02:13:25.479Z,4.74
2024-02-13T02:18:38.441Z,4.62
2024-02-13T02:23:41.291Z,4.58
2024-02-13T02:28:54.397Z,4.64
2024-02-13T02:33:58.044Z,4.59
2024-02-13T02:39:00.791Z,4.63
2024-02-13T02:44:03.537Z,4.77
2024-02-13T02:49:07.112Z,4.64
2024-02-13T02:54:09.879Z,4.72
2024-02-13T02:59:12.436Z,4.66
2024-02-13T03:04:15.130Z,4.61
2024-02-13T03:09:17.832Z,4.81
2024-02-13T03:14:20.385Z,4.70
2024-02-13T03:19:23.144Z,4.73
2024-02-13T03:24:26.088Z,4.68
2024-02-13T03:29:28.864Z,4.60
2024-02-13T03:34:31.849Z,4.63
2024-02-13T03:39:35.120Z,4.66
2024-02-13T03:44:40.585Z,4.70
2024-02-13T03:49:43.200Z,4.62
2024-02-13T03:54:46.273Z,4.56
2024-02-13T03:59:49.033Z,4.45
2024-02-13T04:04:51.878Z,4.34
2024-02-13T04:09:54.576Z,4.30
2024-02-13T04:14:57.566Z,4.27
2024-02-13T04:20:00.142Z,4.40
2024-02-13T04:25:02.770Z,4.52
2024-02-13T04:30:11.741Z,4.56
2024-02-13T04:35:14.475Z,4.64
2024-02-13T04:40:17.694Z,4.70
2024-02-13T04:45:40.225Z,4.84
2024-02-13T04:50:43.001Z,4.85
2024-02-13T04:55:46.162Z,4.76
2024-02-13T05:01:06.975Z,4.81
2024-02-13T05:06:29.441Z,4.97
2024-02-13T05:11:32.591Z,5.16
2024-02-13T05:16:35.493Z,5.32
2024-02-13T05:21:38.170Z,5.50
2024-02-13T05:26:40.878Z,5.97
2024-02-13T05:31:43.797Z,6.60
2024-02-13T05:36:47.655Z,6.69
2024-02-13T05:41:50.343Z,6.91
2024-02-13T05:46:53.080Z,6.79
2024-02-13T05:51:56.740Z,6.82
2024-02-13T05:56:59.297Z,6.78
2024-02-13T06:02:01.888Z,6.92
2024-02-13T06:07:06.873Z,7.43
2024-02-13T06:12:10.232Z,7.68
2024-02-13T06:17:13.364Z,8.26
2024-02-13T06:22:16.093Z,8.59
2024-02-13T06:27:18.730Z,10.42
2024-02-13T06:32:21.429Z,11.89
2024-02-13T06:37:24.680Z,13.15
2024-02-13T06:42:27.317Z,14.59
2024-02-13T06:47:30.212Z,14.99
2024-02-13T06:52:32.731Z,15.18
2024-02-13T06:57:37.826Z,15.89
2024-02-13T07:02:41.361Z,16.74
2024-02-13T07:07:47.712Z,16.98
2024-02-13T07:12:51.390Z,17.89
2024-02-13T07:18:00.225Z,17.75
2024-02-13T07:23:05.154Z,17.76
2024-02-13T07:28:07.861Z,18.40
2024-02-13T07:33:10.714Z,18.16
2024-02-13T07:38:13.751Z,18.35
2024-02-13T07:43:17.076Z,19.11
2024-02-13T07:48:20.129Z,18.51
2024-02-13T07:53:22.861Z,18.15
2024-02-13T07:58:25.457Z,18.38
2024-02-13T08:03:28.032Z,18.28
2024-02-13T08:08:31.372Z,18.26
2024-02-13T08:13:35.124Z,18.30
2024-02-13T08:18:38.398Z,18.60
2024-02-13T08:23:41.028Z,18.59
2024-02-13T08:28:45.322Z,18.61
2024-02-13T08:33:48.398Z,19.05
2024-02-13T08:38:52.393Z,19.07
2024-02-13T08:43:55.560Z,18.91
2024-02-13T08:48:58.338Z,19.23
2024-02-13T08:54:01.317Z,19.03
2024-02-13T08:59:06.092Z,18.91
2024-02-13T09:04:08.837Z,18.35
2024-02-13T09:09:13.340Z,17.44
2024-02-13T09:14:16.350Z,16.69
2024-02-13T09:19:19.307Z,16.03
2024-02-13T09:24:24.516Z,15.74
2024-02-13T09:29:27.251Z,15.68
2024-02-13T09:34:30.214Z,15.45
2024-02-13T09:39:32.768Z,15.01
2024-02-13T09:44:35.653Z,14.58
2024-02-13T09:49:44.531Z,14.32
2024-02-13T09:54:49.776Z,13.88
2024-02-13T09:59:52.769Z,13.86
2024-02-13T10:04:55.752Z,13.43
2024-02-13T10:10:00.074Z,13.60
2024-02-13T10:15:02.622Z,14.65
2024-02-13T10:20:11.927Z,14.87
2024-02-13T10:25:25.524Z,14.47
2024-02-13T10:30:31.453Z,14.33
2024-02-13T10:35:35.095Z,14.31
2024-02-13T10:40:41.086Z,13.99
2024-02-13T10:45:48.621Z,14.16
2024-02-13T10:50:59.454Z,14.58
2024-02-13T10:56:04.287Z,14.88
2024-02-13T11:01:09.044Z,14.68
2024-02-13T11:06:12.421Z,15.14
2024-02-13T11:11:17.383Z,15.33
2024-02-13T11:16:23.751Z,15.08
2024-02-13T11:21:47.813Z,14.36
2024-02-13T11:27:29.734Z,13.84
2024-02-13T11:32:38.832Z,13.74
2024-02-13T11:37:43.452Z,13.65
2024-02-13T11:42:46.419Z,13.61
2024-02-13T11:47:50.994Z,13.73
2024-02-13T11:52:54.233Z,13.70
2024-02-13T11:57:56.851Z,13.85
2024-02-13T12:02:59.740Z,13.75
2024-02-13T12:08:02.430Z,13.51
2024-02-13T12:13:08.149Z,13.19
2024-02-13T12:18:13.592Z,12.95
2024-02-13T12:23:17.663Z,12.74
2024-02-13T12:28:24.890Z,12.68
2024-02-13T12:33:27.885Z,12.43
2024-02-13T12:38:31.923Z,12.46
2024-02-13T12:43:35.464Z,12.24
2024-02-13T12:48:40.874Z,12.13
2024-02-13T12:53:48.037Z,11.85
2024-02-13T12:58:53.795Z,11.57
2024-02-13T13:03:58.988Z,11.17
2024-02-13T13:09:16.142Z,10.64
2024-02-13T13:14:29.378Z,10.19
2024-02-13T13:19:35.461Z,9.81
2024-02-13T13:24:40.199Z,9.58
2024-02-13T13:29:43.927Z,9.24
2024-02-13T13:34:50.355Z,8.85
2024-02-13T13:39:56.835Z,8.55
2024-02-13T13:45:02.994Z,8.24
2024-02-13T13:50:10.343Z,7.96
2024-02-13T13:55:13.129Z,7.74
2024-02-13T14:00:22.424Z,7.58
2024-02-13T14:05:25.502Z,7.41
2024-02-13T14:10:28.246Z,7.20
2024-02-13T14:15:32.954Z,6.85
2024-02-13T14:20:39.107Z,6.42
2024-02-13T14:25:42.188Z,6.33
2024-02-13T14:30:45.208Z,6.15
2024-02-13T14:35:49.170Z,6.03
2024-02-13T14:40:58.627Z,5.89
2024-02-13T14:46:04.109Z,5.82
2024-02-13T14:51:07.752Z,5.86
2024-02-13T14:56:14.896Z,5.84
2024-02-13T15:01:18.761Z,5.72
2024-02-13T15:06:24.794Z,5.69
2024-02-13T15:11:32.871Z,5.62
2024-02-13T15:16:36.949Z,5.58
2024-02-13T15:21:44.605Z,5.62
2024-02-13T15:26:50.419Z,5.57
2024-02-13T15:31:53.779Z,5.54
2024-02-13T15:37:05.159Z,5.54
2024-02-13T15:42:26.752Z,5.59
2024-02-13T15:47:32.957Z,5.57
2024-02-13T15:52:36.448Z,5.62
2024-02-13T15:57:40.073Z,5.73
2024-02-13T16:02:46.336Z,5.63
2024-02-13T16:07:49.184Z,5.80
2024-02-13T16:12:52.063Z,5.77
2024-02-13T16:17:55.511Z,5.50
2024-02-13T16:22:58.939Z,5.71
2024-02-13T16:28:05.210Z,5.83
2024-02-13T16:33:09.340Z,5.88
2024-02-13T16:38:12.424Z,6.04
2024-02-13T16:43:15.081Z,5.98
2024-02-13T16:48:19.992Z,5.92
2024-02-13T16:53:23.754Z,6.00
2024-02-13T16:58:26.560Z,5.98
2024-02-13T17:03:29.369Z,5.94
2024-02-13T17:08:32.562Z,5.76
2024-02-13T17:13:36.068Z,5.70
2024-02-13T17:18:38.884Z,5.59
2024-02-13T17:23:41.560Z,5.49
2024-02-13T17:28:44.158Z,5.32
2024-02-13T17:33:46.954Z,5.25
2024-02-13T17:38:50.744Z,5.14
2024-02-13T17:43:55.537Z,5.12
2024-02-13T17:48:59.659Z,5.16
2024-02-13T17:54:02.769Z,5.07
2024-02-13T17:59:05.793Z,5.13
2024-02-13T18:04:10.842Z,5.04
2024-02-13T18:09:13.624Z,5.05
2024-02-13T18:14:17.571Z,5.08
2024-02-13T18:19:20.794Z,5.08
2024-02-13T18:24:23.942Z,5.09
2024-02-13T18:29:27.472Z,5.05
2024-02-13T18:34:30.418Z,5.15
2024-02-13T18:39:35.251Z,4.97
2024-02-13T18:44:38.378Z,5.02
2024-02-13T18:49:41.143Z,5.00
2024-02-13T18:54:46.071Z,4.93
2024-02-13T18:59:49.008Z,4.88
2024-02-13T19:04:51.706Z,4.92
2024-02-13T19:09:54.518Z,4.96
2024-02-13T19:14:57.114Z,4.91
2024-02-13T19:20:00.889Z,4.87
2024-02-13T19:25:06.449Z,4.90
2024-02-13T19:30:12.587Z,4.85
2024-02-13T19:35:32.771Z,4.83
2024-02-13T19:40:35.338Z,4.83
2024-02-13T19:45:44.102Z,4.94
2024-02-13T19:51:07.759Z,5.05
2024-02-13T19:56:30.395Z,4.93
2024-02-13T20:01:52.886Z,5.04
2024-02-13T20:07:15.914Z,5.14
2024-02-13T20:12:21.494Z,5.16
2024-02-13T20:17:23.984Z,5.17
2024-02-13T20:22:26.586Z,4.94
2024-02-13T20:27:29.208Z,4.80
2024-02-13T20:32:31.816Z,4.76
2024-02-13T20:37:35.024Z,4.67
2024-02-13T20:42:43.562Z,4.74
2024-02-13T20:47:46.366Z,4.69
2024-02-13T20:52:49.021Z,4.71
2024-02-13T20:57:56.872Z,4.64
2024-02-13T21:03:00.506Z,4.70
2024-02-13T21:08:03.340Z,4.78
2024-02-13T21:13:06.953Z,4.92
2024-02-13T21:18:10.341Z,5.01
2024-02-13T21:23:31.783Z,5.17
2024-02-13T21:28:34.616Z,5.01
2024-02-13T21:33:37.668Z,5.23
2024-02-13T21:38:40.335Z,5.23
2024-02-13T21:43:43.174Z,5.24
2024-02-13T21:48:45.979Z,5.13
2024-02-13T21:53:49.513Z,5.02
2024-02-13T21:58:52.260Z,5.04
2024-02-13T22:03:56.928Z,5.12
2024-02-13T22:08:59.612Z,5.02
2024-02-13T22:14:02.341Z,4.89
2024-02-13T22:19:05.254Z,4.78
2024-02-13T22:24:08.168Z,4.70
2024-02-13T22:29:14.127Z,4.64
2024-02-13T22:34:16.953Z,4.59
2024-02-13T22:39:19.565Z,4.59
2024-02-13T22:44:24.596Z,4.61
2024-02-13T22:49:27.663Z,4.57
2024-02-13T22:54:30.311Z,4.49
2024-02-13T22:59:35.747Z,4.65
2024-02-13T23:04:41.273Z,4.76
2024-02-13T23:09:43.800Z,4.79
2024-02-13T23:14:46.382Z,4.84
2024-02-13T23:19:49.655Z,4.77
2024-02-13T23:24:52.236Z,4.95
2024-02-13T23:29:54.769Z,4.94
2024-02-13T23:34:57.486Z,5.09
2024-02-13T23:40:00.298Z,5.18
2024-02-13T23:45:03.130Z,5.21
2024-02-13T23:50:08.616Z,5.12
2024-02-13T23:55:11.899Z,5.25
